Time;durP1;ratioP1;P1;durP2;ratioP2;P2;SDS_P1;SDS_P2;PMS_P1;PMS_P2;Temp;Humidity;BMP_temperature;BMP_pressure;BME280_temperature;BME280_humidity;BME280_pressure;Samples;Min_cycle;Max_cycle;Signal;HPM_P1;HPM_P2
2023/08/14 00:00:49;;;;;;;15.15;2.35;;;;;;;;;;4978942;28;20027;-80
2023/08/14 00:03:18;;;;;;;8.25;2.17;;;;;;;;;;4977350;28;20038;-79
2023/08/14 00:05:43;;;;;;;5.72;2.20;;;;;;;;;;4959956;28;20114;-82
2023/08/14 00:08:09;;;;;;;15.73;2.20;;;;;;;;;;4943772;28;20573;-79
2023/08/14 00:10:34;;;;;;;10.73;2.70;;;;;;;;;;4960794;28;20060;-80
2023/08/14 00:13:00;;;;;;;8.20;2.60;;;;;;;;;;4960099;28;20408;-79
2023/08/14 00:15:25;;;;;;;7.57;2.45;;;;;;;;;;4977642;28;20371;-80
2023/08/14 00:17:51;;;;;;;5.18;2.33;;;;;;;;;;4959391;28;20061;-82
2023/08/14 00:20:17;;;;;;;6.43;2.50;;;;;;;;;;4959873;28;20480;-82
2023/08/14 00:22:42;;;;;;;9.90;2.40;;;;;;;;;;4943681;28;20045;-78
2023/08/14 00:25:09;;;;;;;12.27;3.47;;;;;;;;;;4943743;28;20034;-79
2023/08/14 00:27:34;;;;;;;11.30;2.55;;;;;;;;;;4976062;28;20078;-83
2023/08/14 00:30:00;;;;;;;9.93;2.50;;;;;;;;;;4958751;28;20034;-81
2023/08/14 00:32:26;;;;;;;8.32;2.60;;;;;;;;;;4958532;28;20055;-81
2023/08/14 00:34:52;;;;;;;8.15;2.40;;;;;;;;;;4958688;28;20061;-79
2023/08/14 00:37:17;;;;;;;7.07;2.35;;;;;;;;;;4943263;28;20445;-78
2023/08/14 00:39:43;;;;;;;7.95;2.60;;;;;;;;;;4960099;28;20097;-79
2023/08/14 00:42:09;;;;;;;7.82;2.33;;;;;;;;;;4960678;28;20031;-80
2023/08/14 00:44:34;;;;;;;4.32;2.30;;;;;;;;;;4944618;28;20043;-79
2023/08/14 00:47:01;;;;;;;4.68;2.03;;;;;;;;;;4930479;28;20074;-78
2023/08/14 00:49:26;;;;;;;7.45;2.28;;;;;;;;;;4944685;28;20050;-77
2023/08/14 00:51:52;;;;;;;6.95;2.60;;;;;;;;;;4960719;28;20086;-77
2023/08/14 00:54:18;;;;;;;6.75;2.33;;;;;;;;;;4960144;28;20027;-79
2023/08/14 00:56:43;;;;;;;5.80;2.17;;;;;;;;;;4929210;28;20079;-78
2023/08/14 00:59:09;;;;;;;6.28;2.65;;;;;;;;;;4943997;28;20519;-79
2023/08/14 01:01:35;;;;;;;10.00;2.38;;;;;;;;;;4958025;28;20097;-78
2023/08/14 01:04:01;;;;;;;3.80;2.10;;;;;;;;;;4974760;28;20041;-76
2023/08/14 01:06:27;;;;;;;6.05;2.42;;;;;;;;;;4975090;28;20109;-80
2023/08/14 01:08:53;;;;;;;7.55;2.20;;;;;;;;;;4957621;28;20124;-80
2023/08/14 01:11:26;;;;;;;4.50;1.95;;;;;;;;;;4957838;28;20081;-77
2023/08/14 01:13:51;;;;;;;7.85;2.13;;;;;;;;;;4957587;28;20105;-79
2023/08/14 01:16:20;;;;;;;7.53;2.30;;;;;;;;;;4975010;28;20058;-80
2023/08/14 01:18:45;;;;;;;;;;;;;;;;;;4958026;28;20409;-79
2023/08/14 01:21:13;;;;;;;8.20;2.70;;;;;;;;;;4957767;28;19910;-80
2023/08/14 01:23:45;;;;;;;6.78;2.38;;;;;;;;;;4941404;28;20023;-81
2023/08/14 01:26:11;;;;;;;4.50;1.90;;;;;;;;;;4957820;28;20132;-80
2023/08/14 01:28:37;;;;;;;5.13;2.10;;;;;;;;;;4974424;28;20348;-79
2023/08/14 01:31:02;;;;;;;4.75;2.20;;;;;;;;;;4941585;28;20034;-80
2023/08/14 01:33:28;;;;;;;6.10;2.20;;;;;;;;;;4941108;28;20406;-82
2023/08/14 01:36:14;;;;;;;4.20;2.03;;;;;;;;;;4957298;28;20086;-80
2023/08/14 01:38:46;;;;;;;3.90;2.00;;;;;;;;;;4974034;28;20071;-81
2023/08/14 01:41:16;;;;;;;6.30;1.77;;;;;;;;;;4940961;28;20042;-79
2023/08/14 01:43:46;;;;;;;7.45;2.30;;;;;;;;;;4974076;28;20031;-80
2023/08/14 01:46:12;;;;;;;7.60;2.70;;;;;;;;;;4957152;28;20046;-79
2023/08/14 01:48:38;;;;;;;5.22;2.65;;;;;;;;;;4974202;28;20031;-80
2023/08/14 01:51:04;;;;;;;3.90;1.98;;;;;;;;;;4974389;28;20031;-79
2023/08/14 01:53:32;;;;;;;5.70;3.05;;;;;;;;;;4956735;28;20105;-79
2023/08/14 01:55:58;;;;;;;8.27;2.03;;;;;;;;;;4974343;28;20062;-79
2023/08/14 01:58:23;;;;;;;4.50;2.05;;;;;;;;;;4956982;28;20063;-79
2023/08/14 02:00:49;;;;;;;7.57;2.15;;;;;;;;;;4956973;28;20035;-78
2023/08/14 02:03:15;;;;;;;6.25;3.05;;;;;;;;;;4973955;28;20042;-78
2023/08/14 02:05:40;;;;;;;6.13;2.40;;;;;;;;;;4957130;28;20039;-81
2023/08/14 02:08:06;;;;;;;5.28;2.28;;;;;;;;;;4956704;28;20503;-80
2023/08/14 02:10:31;;;;;;;4.22;2.20;;;;;;;;;;4943020;28;20054;-81
2023/08/14 02:12:57;;;;;;;8.30;2.08;;;;;;;;;;4960720;28;20035;-80
2023/08/14 02:15:23;;;;;;;8.82;2.10;;;;;;;;;;4964773;28;20038;-79
2023/08/14 02:17:49;;;;;;;4.50;2.22;;;;;;;;;;4956287;28;20039;-78
2023/08/14 02:20:15;;;;;;;7.13;2.70;;;;;;;;;;4990569;28;20027;-79
2023/08/14 02:22:41;;;;;;;7.35;2.00;;;;;;;;;;4993460;28;20114;-81
2023/08/14 02:25:06;;;;;;;4.65;2.30;;;;;;;;;;4993299;28;20647;-80
2023/08/14 02:27:32;;;;;;;5.13;2.20;;;;;;;;;;4978319;28;20094;-80
2023/08/14 02:29:58;;;;;;;8.23;2.22;;;;;;;;;;4995377;28;20010;-79
2023/08/14 02:32:23;;;;;;;6.40;2.42;;;;;;;;;;4992152;28;20517;-79
2023/08/14 02:34:50;;;;;;;5.05;2.17;;;;;;;;;;4984754;28;20027;-79
2023/08/14 02:37:18;;;;;;;6.50;2.20;;;;;;;;;;4964605;28;20043;-81
2023/08/14 02:39:44;;;;;;;7.25;2.53;;;;;;;;;;4978434;28;20375;-79
2023/08/14 02:42:10;;;;;;;7.53;3.85;;;;;;;;;;4956885;28;20419;-81
2023/08/14 02:44:36;;;;;;;12.93;6.53;;;;;;;;;;4973824;28;20034;-81
2023/08/14 02:47:01;;;;;;;6.28;2.78;;;;;;;;;;4973899;28;20030;-78
2023/08/14 02:49:27;;;;;;;6.32;2.92;;;;;;;;;;4956262;28;20393;-79
2023/08/14 02:51:53;;;;;;;5.68;2.40;;;;;;;;;;4956865;28;20074;-80
2023/08/14 02:54:19;;;;;;;5.40;2.67;;;;;;;;;;4957782;28;20451;-79
2023/08/14 02:56:44;;;;;;;7.57;2.25;;;;;;;;;;4974536;28;20034;-79
2023/08/14 02:59:10;;;;;;;3.92;2.00;;;;;;;;;;4942930;28;20409;-79
2023/08/14 03:01:35;;;;;;;9.30;2.85;;;;;;;;;;4956996;28;20398;-79
2023/08/14 03:04:01;;;;;;;5.50;2.15;;;;;;;;;;4956334;28;20042;-80
2023/08/14 03:06:29;;;;;;;10.57;2.95;;;;;;;;;;4973363;28;20513;-79
2023/08/14 03:08:55;;;;;;;6.30;3.00;;;;;;;;;;4940073;28;20035;-81
2023/08/14 03:11:21;;;;;;;6.82;2.60;;;;;;;;;;4956147;28;20035;-83
2023/08/14 03:13:46;;;;;;;9.25;2.47;;;;;;;;;;4955780;28;20394;-80
2023/08/14 03:16:12;;;;;;;4.30;2.03;;;;;;;;;;4955996;28;20113;-80
2023/08/14 03:18:38;;;;;;;6.65;2.28;;;;;;;;;;4939855;28;20424;-80
2023/08/14 03:21:03;;;;;;;6.63;2.40;;;;;;;;;;4972920;28;20493;-79
2023/08/14 03:23:29;;;;;;;10.57;2.63;;;;;;;;;;4955845;28;20394;-79
2023/08/14 03:25:54;;;;;;;7.20;2.63;;;;;;;;;;4940014;28;20405;-80
2023/08/14 03:28:20;;;;;;;9.13;2.78;;;;;;;;;;4955643;28;20335;-80
2023/08/14 03:30:48;;;;;;;6.93;3.00;;;;;;;;;;4955595;28;20062;-78
2023/08/14 03:33:13;;;;;;;6.80;2.47;;;;;;;;;;4939701;28;20540;-80
2023/08/14 03:35:39;;;;;;;7.35;2.95;;;;;;;;;;4955500;28;20027;-80
2023/08/14 03:38:05;;;;;;;7.85;2.78;;;;;;;;;;4939692;28;20043;-81
2023/08/14 03:40:31;;;;;;;5.13;2.25;;;;;;;;;;4924087;28;20038;-80
2023/08/14 03:42:58;;;;;;;7.35;2.70;;;;;;;;;;4972560;28;20037;-80
2023/08/14 03:45:23;;;;;;;8.63;2.70;;;;;;;;;;4955677;28;20118;-79
2023/08/14 03:47:49;;;;;;;5.90;2.70;;;;;;;;;;4972604;28;20027;-79
2023/08/14 03:50:15;;;;;;;5.45;2.28;;;;;;;;;;4939302;28;20037;-80
2023/08/14 03:52:41;;;;;;;6.57;2.70;;;;;;;;;;4942421;28;20481;-80
2023/08/14 03:55:07;;;;;;;8.00;2.55;;;;;;;;;;4976306;28;20030;-81
2023/08/14 03:57:32;;;;;;;11.38;6.47;;;;;;;;;;4959166;28;20027;-80
2023/08/14 03:59:58;;;;;;;8.20;4.40;;;;;;;;;;4959394;28;20077;-79
2023/08/14 04:02:23;;;;;;;6.20;2.70;;;;;;;;;;4975726;28;20070;-79
2023/08/14 04:04:49;;;;;;;5.88;2.30;;;;;;;;;;4958867;28;20027;-80
2023/08/14 04:07:14;;;;;;;12.60;2.70;;;;;;;;;;4976106;28;20104;-80
2023/08/14 04:09:40;;;;;;;9.27;2.75;;;;;;;;;;4975867;28;20058;-81
2023/08/14 04:12:05;;;;;;;8.68;2.78;;;;;;;;;;4975782;28;20042;-80
2023/08/14 04:14:32;;;;;;;5.43;2.67;;;;;;;;;;4975889;28;20497;-80
2023/08/14 04:16:58;;;;;;;4.72;2.55;;;;;;;;;;4944592;28;20490;-80
2023/08/14 04:19:23;;;;;;;7.45;2.88;;;;;;;;;;4975588;28;20041;-81
2023/08/14 04:21:49;;;;;;;5.82;2.55;;;;;;;;;;4958426;28;20034;-80
2023/08/14 04:24:15;;;;;;;10.18;3.15;;;;;;;;;;4958343;28;20031;-80
2023/08/14 04:26:40;;;;;;;10.35;2.90;;;;;;;;;;4958570;28;20035;-80
2023/08/14 04:29:07;;;;;;;10.82;2.60;;;;;;;;;;4958690;28;20035;-81
2023/08/14 04:31:33;;;;;;;12.48;3.17;;;;;;;;;;4942522;28;20081;-77
2023/08/14 04:33:59;;;;;;;9.13;2.80;;;;;;;;;;4958220;28;20554;-79
2023/08/14 04:36:27;;;;;;;10.27;3.00;;;;;;;;;;4960453;28;20023;-79
2023/08/14 04:38:52;;;;;;;6.80;3.05;;;;;;;;;;4980471;28;20027;-77
2023/08/14 04:41:18;;;;;;;9.32;2.63;;;;;;;;;;4962830;28;20033;-78
2023/08/14 04:43:44;;;;;;;7.93;3.58;;;;;;;;;;4946858;28;20053;-80
2023/08/14 04:46:13;;;;;;;7.10;2.70;;;;;;;;;;4930153;28;20409;-77
2023/08/14 04:48:39;;;;;;;6.55;3.08;;;;;;;;;;4959296;28;20030;-80
2023/08/14 04:51:06;;;;;;;7.07;2.97;;;;;;;;;;4958503;28;20371;-76
2023/08/14 04:53:31;;;;;;;13.05;3.03;;;;;;;;;;4958766;28;20154;-80
2023/08/14 04:55:58;;;;;;;5.53;2.38;;;;;;;;;;4959316;28;20027;-79
2023/08/14 04:58:23;;;;;;;10.40;5.28;;;;;;;;;;4959452;28;20520;-79
2023/08/14 05:00:49;;;;;;;8.57;3.22;;;;;;;;;;4963003;28;20469;-78
2023/08/14 05:03:15;;;;;;;12.73;3.55;;;;;;;;;;4969967;28;20568;-80
2023/08/14 05:05:41;;;;;;;8.35;2.78;;;;;;;;;;4990556;28;20042;-80
2023/08/14 05:08:06;;;;;;;6.88;2.65;;;;;;;;;;4958134;28;20397;-82
2023/08/14 05:10:32;;;;;;;8.25;2.65;;;;;;;;;;4973168;28;20030;-81
2023/08/14 05:12:58;;;;;;;7.45;2.80;;;;;;;;;;4981041;28;20023;-78
2023/08/14 05:15:25;;;;;;;6.90;2.97;;;;;;;;;;4959489;28;20035;-80
2023/08/14 05:17:50;;;;;;;5.47;2.70;;;;;;;;;;4975503;28;20085;-79
2023/08/14 05:20:16;;;;;;;6.35;2.50;;;;;;;;;;4941968;28;20449;-80
2023/08/14 05:22:43;;;;;;;5.65;2.25;;;;;;;;;;4941557;28;20445;-79
2023/08/14 05:25:10;;;;;;;5.18;2.35;;;;;;;;;;4942363;28;20029;-79
2023/08/14 05:27:38;;;;;;;7.45;2.78;;;;;;;;;;4975223;28;20022;-80
2023/08/14 05:30:05;;;;;;;7.88;3.22;;;;;;;;;;4958818;28;20284;-79
2023/08/14 05:32:30;;;;;;;7.97;3.88;;;;;;;;;;4958110;28;20041;-81
2023/08/14 05:34:56;;;;;;;11.35;3.25;;;;;;;;;;4975095;28;20447;-79
2023/08/14 05:37:21;;;;;;;5.18;2.50;;;;;;;;;;4958106;28;20468;-81
2023/08/14 05:39:47;;;;;;;5.65;2.35;;;;;;;;;;4975143;28;20402;-80
2023/08/14 05:42:15;;;;;;;6.57;2.40;;;;;;;;;;4941716;28;20034;-80
2023/08/14 05:44:40;;;;;;;7.47;2.53;;;;;;;;;;4957947;28;20035;-80
2023/08/14 05:47:06;;;;;;;4.72;2.20;;;;;;;;;;4957664;28;20640;-79
2023/08/14 05:49:31;;;;;;;8.15;2.75;;;;;;;;;;4974510;28;20401;-81
2023/08/14 05:51:57;;;;;;;5.32;2.15;;;;;;;;;;4974558;28;20027;-82
2023/08/14 05:54:23;;;;;;;4.75;2.38;;;;;;;;;;4974293;28;20034;-79
2023/08/14 05:56:50;;;;;;;4.80;2.30;;;;;;;;;;4974166;28;20093;-79
2023/08/14 05:59:16;;;;;;;4.50;2.03;;;;;;;;;;4957180;28;20138;-81
2023/08/14 06:01:41;;;;;;;6.47;2.30;;;;;;;;;;4940806;28;20517;-79
2023/08/14 06:04:07;;;;;;;5.32;2.20;;;;;;;;;;4974175;28;20038;-80
2023/08/14 06:06:33;;;;;;;4.95;2.40;;;;;;;;;;4974138;28;20105;-81
2023/08/14 06:09:00;;;;;;;6.65;2.70;;;;;;;;;;4956705;28;20038;-80
2023/08/14 06:11:25;;;;;;;5.35;2.00;;;;;;;;;;4940961;28;20035;-79
2023/08/14 06:13:51;;;;;;;5.82;1.90;;;;;;;;;;4973789;28;20077;-80
2023/08/14 06:16:16;;;;;;;3.83;2.03;;;;;;;;;;4973114;28;20061;-81
2023/08/14 06:18:42;;;;;;;4.82;2.22;;;;;;;;;;4956823;28;20385;-81
2023/08/14 06:21:08;;;;;;;8.30;2.22;;;;;;;;;;4956427;28;20559;-80
2023/08/14 06:23:33;;;;;;;5.00;2.00;;;;;;;;;;4956160;28;20437;-81
2023/08/14 06:25:59;;;;;;;4.65;1.85;;;;;;;;;;4956459;28;20033;-81
2023/08/14 06:28:24;;;;;;;5.07;2.83;;;;;;;;;;4956617;28;20035;-80
2023/08/14 06:30:50;;;;;;;7.10;3.05;;;;;;;;;;4973780;28;20082;-82
2023/08/14 06:33:18;;;;;;;4.97;2.20;;;;;;;;;;4973592;28;20553;-80
2023/08/14 06:35:43;;;;;;;8.50;2.50;;;;;;;;;;4941060;28;20031;-81
2023/08/14 06:38:09;;;;;;;8.82;3.15;;;;;;;;;;4956281;28;20497;-80
2023/08/14 06:40:34;;;;;;;8.70;5.20;;;;;;;;;;4973630;28;20030;-79
2023/08/14 06:43:00;;;;;;;4.22;2.05;;;;;;;;;;4973211;28;20497;-80
2023/08/14 06:45:25;;;;;;;5.35;1.85;;;;;;;;;;4973289;28;20034;-80
2023/08/14 06:47:51;;;;;;;7.43;2.63;;;;;;;;;;4956100;28;20038;-79
2023/08/14 06:50:17;;;;;;;6.85;2.17;;;;;;;;;;4956170;28;20113;-79
2023/08/14 06:52:42;;;;;;;7.15;2.13;;;;;;;;;;4939728;28;20509;-80
2023/08/14 06:55:08;;;;;;;5.50;1.92;;;;;;;;;;4940282;28;20030;-82
2023/08/14 06:57:33;;;;;;;5.43;2.30;;;;;;;;;;4956134;28;20034;-80
2023/08/14 07:00:02;;;;;;;5.60;2.58;;;;;;;;;;4973129;28;20504;-80
2023/08/14 07:02:28;;;;;;;8.48;2.72;;;;;;;;;;4972829;28;20039;-80
2023/08/14 07:04:53;;;;;;;4.72;2.22;;;;;;;;;;4956490;28;20042;-81
2023/08/14 07:07:19;;;;;;;6.00;2.25;;;;;;;;;;4956169;28;20035;-81
2023/08/14 07:09:44;;;;;;;7.50;1.88;;;;;;;;;;4955962;28;20031;-79
2023/08/14 07:12:10;;;;;;;4.85;2.10;;;;;;;;;;4973241;28;20037;-81
2023/08/14 07:14:35;;;;;;;7.07;2.38;;;;;;;;;;4973719;28;20571;-79
2023/08/14 07:17:01;;;;;;;7.90;2.03;;;;;;;;;;4956488;28;20027;-79
2023/08/14 07:19:26;;;;;;;5.25;2.20;;;;;;;;;;4972836;28;20121;-80
2023/08/14 07:21:52;;;;;;;6.90;1.75;;;;;;;;;;4955613;28;20510;-79
2023/08/14 07:24:18;;;;;;;9.02;2.15;;;;;;;;;;4955639;28;20030;-78
2023/08/14 07:26:43;;;;;;;6.35;2.17;;;;;;;;;;4959125;28;20498;-80
2023/08/14 07:29:09;;;;;;;4.18;2.10;;;;;;;;;;4959193;28;20054;-80
2023/08/14 07:31:34;;;;;;;6.40;2.25;;;;;;;;;;4960028;28;20035;-80
2023/08/14 07:34:00;;;;;;;6.32;2.20;;;;;;;;;;4963123;28;20030;-84
2023/08/14 07:36:25;;;;;;;5.78;2.28;;;;;;;;;;4964082;28;20027;-80
2023/08/14 07:38:51;;;;;;;9.38;1.70;;;;;;;;;;4983685;28;20031;-81
2023/08/14 07:41:17;;;;;;;4.07;2.00;;;;;;;;;;4966354;28;20038;-80
2023/08/14 07:43:42;;;;;;;5.53;1.88;;;;;;;;;;4950403;28;20114;-80
2023/08/14 07:46:09;;;;;;;4.70;2.13;;;;;;;;;;4967021;28;20038;-80
2023/08/14 07:48:35;;;;;;;6.22;1.77;;;;;;;;;;4956268;28;20030;-79
2023/08/14 07:51:00;;;;;;;3.35;1.80;;;;;;;;;;4985840;28;20490;-80
2023/08/14 07:53:26;;;;;;;4.80;1.60;;;;;;;;;;4981149;28;20039;-81
2023/08/14 07:55:51;;;;;;;4.10;1.73;;;;;;;;;;4978125;28;20026;-80
2023/08/14 07:58:18;;;;;;;4.20;1.70;;;;;;;;;;4944484;28;20474;-80
2023/08/14 08:00:44;;;;;;;3.92;1.95;;;;;;;;;;4928285;28;20042;-83
2023/08/14 08:03:11;;;;;;;5.40;1.60;;;;;;;;;;4943070;28;20038;-80
2023/08/14 08:05:37;;;;;;;5.53;1.70;;;;;;;;;;4959349;28;20150;-79
2023/08/14 08:08:02;;;;;;;2.75;1.55;;;;;;;;;;4977118;28;20129;-82
2023/08/14 08:10:28;;;;;;;5.65;1.95;;;;;;;;;;4976508;28;20030;-83
2023/08/14 08:12:53;;;;;;;4.72;1.80;;;;;;;;;;4958891;28;20030;-80
2023/08/14 08:15:19;;;;;;;3.55;1.65;;;;;;;;;;4958704;28;20034;-80
2023/08/14 08:17:45;;;;;;;6.05;1.70;;;;;;;;;;4959475;28;20109;-80
2023/08/14 08:20:11;;;;;;;3.78;1.67;;;;;;;;;;4958912;28;20247;-81
2023/08/14 08:22:36;;;;;;;7.47;2.10;;;;;;;;;;4958765;28;20058;-80
2023/08/14 08:25:03;;;;;;;5.05;1.80;;;;;;;;;;4953200;28;20050;-80
2023/08/14 08:27:29;;;;;;;5.68;1.77;;;;;;;;;;4980018;28;20054;-88
2023/08/14 08:29:54;;;;;;;47.90;32.28;;;;;;;;;;4948287;28;20031;-86
2023/08/14 08:32:20;;;;;;;6.00;3.03;;;;;;;;;;4963055;28;20035;-86
2023/08/14 08:34:45;;;;;;;18.92;10.02;;;;;;;;;;4949031;29;20031;-88
2023/08/14 08:37:12;;;;;;;13.15;7.25;;;;;;;;;;4933608;28;20039;-86
2023/08/14 08:39:37;;;;;;;10.02;4.50;;;;;;;;;;4938604;29;20062;-87
2023/08/14 08:42:06;;;;;;;7.13;3.10;;;;;;;;;;4917553;28;20035;-89
2023/08/14 08:44:32;;;;;;;10.95;6.95;;;;;;;;;;4945440;29;20031;-86
2023/08/14 08:47:02;;;;;;;8.77;4.45;;;;;;;;;;4934505;28;20026;-86
2023/08/14 08:49:28;;;;;;;7.50;3.33;;;;;;;;;;4958278;28;20037;-84
2023/08/14 08:51:54;;;;;;;7.35;2.47;;;;;;;;;;4941896;29;20023;-85
2023/08/14 08:54:19;;;;;;;7.00;2.90;;;;;;;;;;4945137;28;20034;-85
2023/08/14 08:56:45;;;;;;;4.82;2.40;;;;;;;;;;4958477;28;20490;-85
2023/08/14 08:59:11;;;;;;;6.32;3.33;;;;;;;;;;4948437;29;20090;-85
2023/08/14 09:01:37;;;;;;;5.20;2.85;;;;;;;;;;4970636;28;20034;-86
2023/08/14 09:04:03;;;;;;;5.18;2.10;;;;;;;;;;4994002;23;20046;-84
2023/08/14 09:06:30;;;;;;;5.82;2.00;;;;;;;;;;4993983;28;20051;-82
2023/08/14 09:08:56;;;;;;;3.60;1.80;;;;;;;;;;4994319;28;20030;-79
2023/08/14 09:11:21;;;;;;;4.93;1.65;;;;;;;;;;4957276;28;20038;-79
2023/08/14 09:13:47;;;;;;;4.18;1.70;;;;;;;;;;4969449;28;20482;-79
2023/08/14 09:16:13;;;;;;;5.88;1.90;;;;;;;;;;4990222;28;20498;-78
2023/08/14 09:18:39;;;;;;;5.90;1.98;;;;;;;;;;4974787;28;20093;-78
2023/08/14 09:21:04;;;;;;;6.15;2.13;;;;;;;;;;4978240;28;20085;-78
2023/08/14 09:23:34;;;;;;;4.15;1.92;;;;;;;;;;4953870;28;20037;-78
2023/08/14 09:26:00;;;;;;;5.60;1.75;;;;;;;;;;4977296;28;20031;-78
2023/08/14 09:28:26;;;;;;;4.28;2.10;;;;;;;;;;4956743;28;20122;-78
2023/08/14 09:30:52;;;;;;;5.05;2.10;;;;;;;;;;4982338;28;20034;-79
2023/08/14 09:33:17;;;;;;;3.85;1.92;;;;;;;;;;4981209;28;20027;-78
2023/08/14 09:35:51;;;;;;;3.90;2.20;;;;;;;;;;4971705;28;20041;-79
2023/08/14 09:38:16;;;;;;;11.63;2.63;;;;;;;;;;4977587;28;20493;-79
2023/08/14 09:40:42;;;;;;;3.63;2.17;;;;;;;;;;4968786;28;20023;-79
2023/08/14 09:43:09;;;;;;;4.10;1.90;;;;;;;;;;4984129;28;20117;-78
2023/08/14 09:45:35;;;;;;;3.22;1.77;;;;;;;;;;4961702;28;20030;-79
2023/08/14 09:48:01;;;;;;;4.00;2.03;;;;;;;;;;4989955;28;20030;-78
2023/08/14 09:50:27;;;;;;;8.02;2.00;;;;;;;;;;4961521;28;20023;-78
2023/08/14 09:52:55;;;;;;;4.97;2.10;;;;;;;;;;4956609;28;20034;-78
2023/08/14 09:55:22;;;;;;;66.30;40.92;;;;;;;;;;4988734;28;20022;-84
2023/08/14 09:57:48;;;;;;;6.53;3.40;;;;;;;;;;4961352;28;20493;-80
2023/08/14 10:00:14;;;;;;;7.03;5.00;;;;;;;;;;4940742;28;20473;-79
2023/08/14 10:02:40;;;;;;;12.90;3.00;;;;;;;;;;4940473;28;20118;-80
2023/08/14 10:05:09;;;;;;;6.10;2.15;;;;;;;;;;4947712;28;20092;-79
2023/08/14 10:07:34;;;;;;;;;;;;;;;;;;4941114;28;20052;-80
2023/08/14 10:10:04;;;;;;;3.78;2.42;;;;;;;;;;4972209;28;20297;-79
2023/08/14 10:12:32;;;;;;;5.53;2.15;;;;;;;;;;4978979;28;20477;-79
2023/08/14 10:15:08;;;;;;;5.47;2.22;;;;;;;;;;4966744;28;20117;-80
2023/08/14 10:17:41;;;;;;;5.28;2.45;;;;;;;;;;4954596;28;20026;-79
2023/08/14 10:20:07;;;;;;;4.97;2.28;;;;;;;;;;4976607;28;20031;-79
2023/08/14 10:22:33;;;;;;;7.30;2.00;;;;;;;;;;4964859;28;20121;-81
2023/08/14 10:25:01;;;;;;;6.40;2.00;;;;;;;;;;4956251;28;20126;-77
2023/08/14 10:27:27;;;;;;;8.45;2.55;;;;;;;;;;4955986;28;20035;-79
2023/08/14 10:29:53;;;;;;;5.47;2.38;;;;;;;;;;4969849;28;20545;-78
2023/08/14 10:32:19;;;;;;;6.00;2.25;;;;;;;;;;4988275;28;20069;-80
2023/08/14 10:34:45;;;;;;;5.30;2.53;;;;;;;;;;4947453;28;20068;-79
2023/08/14 10:37:24;;;;;;;8.02;3.28;;;;;;;;;;4939652;28;20485;-80
2023/08/14 10:39:50;;;;;;;5.00;2.15;;;;;;;;;;4972205;28;20104;-79
2023/08/14 10:42:17;;;;;;;4.07;1.85;;;;;;;;;;4944063;28;20564;-81
2023/08/14 10:44:43;;;;;;;6.60;2.40;;;;;;;;;;4987523;28;20121;-81
2023/08/14 10:47:13;;;;;;;4.55;2.05;;;;;;;;;;4958787;28;20031;-81
2023/08/14 10:49:42;;;;;;;10.65;2.28;;;;;;;;;;4970288;28;20030;-82
2023/08/14 10:52:11;;;;;;;8.18;2.33;;;;;;;;;;4959159;28;20030;-80
2023/08/14 10:54:37;;;;;;;3.97;2.20;;;;;;;;;;4986416;28;20026;-80
2023/08/14 10:57:06;;;;;;;10.18;2.72;;;;;;;;;;4965650;28;20038;-80
2023/08/14 10:59:33;;;;;;;4.20;2.33;;;;;;;;;;4955914;28;20034;-81
2023/08/14 11:02:26;;;;;;;7.00;2.27;;;;;;;;;;4957152;28;20031;-81
2023/08/14 11:05:10;;;;;;;4.75;2.33;;;;;;;;;;4949897;28;20307;-80
2023/08/14 11:07:36;;;;;;;3.83;2.03;;;;;;;;;;4978818;28;20093;-81
2023/08/14 11:10:05;;;;;;;5.50;2.92;;;;;;;;;;4957833;28;20448;-80
2023/08/14 11:12:31;;;;;;;7.25;2.65;;;;;;;;;;4956630;28;20023;-81
2023/08/14 11:14:57;;;;;;;6.53;2.38;;;;;;;;;;4957069;28;20033;-81
2023/08/14 11:17:24;;;;;;;11.18;2.28;;;;;;;;;;4950193;28;20023;-80
2023/08/14 11:19:50;;;;;;;7.93;2.28;;;;;;;;;;4956514;28;20089;-80
2023/08/14 11:22:16;;;;;;;6.55;2.40;;;;;;;;;;4966796;28;20327;-81
2023/08/14 11:24:41;;;;;;;6.22;2.53;;;;;;;;;;4985508;28;20031;-81
2023/08/14 11:27:07;;;;;;;4.00;2.15;;;;;;;;;;4984251;28;20050;-81
2023/08/14 11:29:36;;;;;;;75.65;57.63;;;;;;;;;;4978996;28;20388;-82
2023/08/14 11:32:01;;;;;;;13.38;5.38;;;;;;;;;;4954850;28;20125;-80
2023/08/14 11:34:27;;;;;;;18.45;12.93;;;;;;;;;;4976972;28;20103;-79
2023/08/14 11:36:55;;;;;;;18.85;11.65;;;;;;;;;;4983115;28;20022;-79
2023/08/14 11:39:20;;;;;;;17.30;10.83;;;;;;;;;;4967123;28;20526;-79
2023/08/14 11:41:46;;;;;;;11.50;6.75;;;;;;;;;;4975893;28;20058;-79
2023/08/14 11:44:11;;;;;;;11.65;7.40;;;;;;;;;;4970941;28;20033;-80
2023/08/14 11:46:38;;;;;;;5.95;3.08;;;;;;;;;;4945864;28;20026;-80
2023/08/14 11:49:04;;;;;;;10.10;4.45;;;;;;;;;;4981954;28;20574;-80
2023/08/14 11:51:31;;;;;;;9.68;5.40;;;;;;;;;;4986048;28;20059;-80
2023/08/14 11:53:58;;;;;;;7.43;4.03;;;;;;;;;;4975500;28;20062;-80
2023/08/14 11:56:24;;;;;;;4.63;2.75;;;;;;;;;;4969912;28;20474;-80
2023/08/14 11:58:52;;;;;;;7.78;4.30;;;;;;;;;;4955530;28;20023;-80
2023/08/14 12:01:19;;;;;;;7.38;3.20;;;;;;;;;;4955933;28;20038;-80
2023/08/14 12:03:45;;;;;;;4.93;2.63;;;;;;;;;;4976754;28;20255;-80
2023/08/14 12:06:11;;;;;;;5.20;2.47;;;;;;;;;;4988541;28;20030;-80
2023/08/14 12:08:37;;;;;;;5.63;2.65;;;;;;;;;;4978596;28;20393;-80
2023/08/14 12:11:03;;;;;;;4.82;2.70;;;;;;;;;;4980235;28;20046;-80
2023/08/14 12:13:31;;;;;;;6.13;2.80;;;;;;;;;;4985876;28;20031;-80
2023/08/14 12:16:02;;;;;;;5.10;2.42;;;;;;;;;;4962292;28;20027;-79
2023/08/14 12:18:29;;;;;;;5.85;2.53;;;;;;;;;;4972686;28;20031;-78
2023/08/14 12:20:55;;;;;;;8.48;2.28;;;;;;;;;;4967787;28;20022;-79
2023/08/14 12:23:22;;;;;;;5.82;2.42;;;;;;;;;;4971057;28;20460;-80
2023/08/14 12:25:48;;;;;;;3.97;2.20;;;;;;;;;;4949017;28;20054;-80
2023/08/14 12:28:14;;;;;;;7.15;2.60;;;;;;;;;;4977733;28;20481;-81
2023/08/14 12:30:39;;;;;;;5.65;2.67;;;;;;;;;;4970940;28;20027;-80
2023/08/14 12:33:05;;;;;;;6.43;2.50;;;;;;;;;;4972864;28;20470;-79
2023/08/14 12:35:31;;;;;;;6.30;2.47;;;;;;;;;;4971778;28;20061;-80
2023/08/14 12:37:58;;;;;;;5.80;2.20;;;;;;;;;;4959104;28;20054;-80
2023/08/14 12:40:24;;;;;;;6.03;2.77;;;;;;;;;;4953127;28;20023;-81
2023/08/14 12:42:49;;;;;;;20.35;13.25;;;;;;;;;;4970697;28;20723;-82
2023/08/14 12:45:15;;;;;;;9.85;4.78;;;;;;;;;;4958188;28;20065;-82
2023/08/14 12:47:41;;;;;;;14.60;6.55;;;;;;;;;;4975610;28;20473;-79
2023/08/14 12:50:07;;;;;;;17.75;12.52;;;;;;;;;;4981574;28;20030;-81
2023/08/14 12:52:32;;;;;;;17.08;10.82;;;;;;;;;;4971762;28;20031;-80
2023/08/14 12:54:58;;;;;;;8.82;6.18;;;;;;;;;;4964058;28;20025;-82
2023/08/14 12:57:33;;;;;;;17.92;9.23;;;;;;;;;;4989218;28;20484;-82
2023/08/14 13:00:43;;;;;;;10.35;7.22;;;;;;;;;;4963134;28;20046;-83
2023/08/14 13:03:08;;;;;;;8.68;4.65;;;;;;;;;;4986279;28;20038;-82
2023/08/14 13:05:34;;;;;;;8.18;3.83;;;;;;;;;;4964522;28;20038;-82
2023/08/14 13:08:00;;;;;;;7.10;4.35;;;;;;;;;;4974159;28;20030;-82
2023/08/14 13:10:26;;;;;;;7.13;3.40;;;;;;;;;;4980403;28;20026;-81
2023/08/14 13:12:54;;;;;;;9.25;3.63;;;;;;;;;;4986440;28;20500;-82
2023/08/14 13:15:20;;;;;;;5.13;3.25;;;;;;;;;;4957491;28;20034;-82
2023/08/14 13:17:45;;;;;;;4.53;3.00;;;;;;;;;;4966197;28;20458;-82
2023/08/14 13:20:14;;;;;;;4.95;2.70;;;;;;;;;;4989392;28;20046;-82
2023/08/14 13:22:40;;;;;;;6.53;2.78;;;;;;;;;;4976282;28;20026;-82
2023/08/14 13:25:05;;;;;;;6.63;2.55;;;;;;;;;;4966493;28;20041;-82
2023/08/14 13:27:31;;;;;;;7.03;2.55;;;;;;;;;;4993702;28;20027;-82
2023/08/14 13:29:56;;;;;;;6.07;3.22;;;;;;;;;;4956595;28;20402;-82
2023/08/14 13:32:22;;;;;;;4.82;2.30;;;;;;;;;;4973699;28;20027;-82
2023/08/14 13:34:48;;;;;;;7.40;2.95;;;;;;;;;;4974963;28;20105;-82
2023/08/14 13:37:13;;;;;;;5.22;2.72;;;;;;;;;;4977448;28;20053;-82
2023/08/14 13:39:39;;;;;;;7.85;3.22;;;;;;;;;;5003099;28;20057;-81
2023/08/14 13:42:04;;;;;;;6.97;2.65;;;;;;;;;;4956220;28;20035;-80
2023/08/14 13:44:30;;;;;;;10.15;6.63;;;;;;;;;;4972997;28;20023;-83
2023/08/14 13:46:56;;;;;;;20.10;13.23;;;;;;;;;;4977680;28;20444;-85
2023/08/14 13:49:21;;;;;;;17.17;11.98;;;;;;;;;;4992959;28;20031;-83
2023/08/14 13:51:47;;;;;;;8.02;4.78;;;;;;;;;;4984050;28;20030;-83
2023/08/14 13:54:13;;;;;;;10.02;7.20;;;;;;;;;;4955062;28;20417;-86
2023/08/14 13:56:39;;;;;;;8.55;4.07;;;;;;;;;;4967774;28;20036;-85
2023/08/14 13:59:04;;;;;;;9.60;3.85;;;;;;;;;;4969893;28;20041;-84
2023/08/14 14:01:30;;;;;;;7.15;4.30;;;;;;;;;;4974909;28;20054;-84
2023/08/14 14:03:56;;;;;;;104.88;87.47;;;;;;;;;;4954599;28;20533;-82
2023/08/14 14:06:22;;;;;;;20.15;13.60;;;;;;;;;;4992156;28;20030;-82
2023/08/14 14:08:47;;;;;;;23.67;16.50;;;;;;;;;;4966202;28;20370;-82
2023/08/14 14:11:13;;;;;;;8.50;5.90;;;;;;;;;;4965914;28;20034;-82
2023/08/14 14:13:38;;;;;;;16.25;10.30;;;;;;;;;;4971695;28;20417;-82
2023/08/14 14:16:04;;;;;;;8.20;2.92;;;;;;;;;;4962383;28;20042;-82
2023/08/14 14:18:30;;;;;;;10.00;5.40;;;;;;;;;;4946996;28;20026;-82
2023/08/14 14:20:55;;;;;;;11.98;5.50;;;;;;;;;;4957363;28;20516;-82
2023/08/14 14:23:21;;;;;;;7.65;3.60;;;;;;;;;;4956806;28;20401;-82
2023/08/14 14:25:46;;;;;;;8.50;4.07;;;;;;;;;;4972870;28;20413;-82
2023/08/14 14:28:14;;;;;;;8.27;3.13;;;;;;;;;;4964530;28;20030;-79
2023/08/14 14:30:40;;;;;;;6.53;3.08;;;;;;;;;;4969011;28;20026;-79
2023/08/14 14:33:05;;;;;;;8.77;3.65;;;;;;;;;;4956346;28;20387;-80
2023/08/14 14:35:31;;;;;;;10.63;3.10;;;;;;;;;;4974118;28;20023;-81